Time;durP1;ratioP1;P1;durP2;ratioP2;P2;SDS_P1;SDS_P2;PMS_P1;PMS_P2;Temp;Humidity;BMP_temperature;BMP_pressure;BME280_temperature;BME280_humidity;BME280_pressure;Samples;Min_cycle;Max_cycle;Signal;HPM_P1;HPM_P2
2023/04/15 00:01:57;;;;;;;;;;;;;;;8.73;63.45;100735.06;5022379;28;19924;-61
2023/04/15 00:04:22;;;;;;;;;;;;;;;8.69;63.36;100734.56;5014155;28;20402;-61
2023/04/15 00:06:52;;;;;;;;;;;;;;;8.67;63.58;100731.25;5018856;28;19913;-61
2023/04/15 00:09:18;;;;;;;;;;;;;;;8.63;63.91;100729.06;5021814;28;19952;-61
2023/04/15 00:11:43;;;;;;;;;;;;;;;8.58;64.19;100726.91;5019328;28;19920;-61
2023/04/15 00:14:08;;;;;;;;;;;;;;;8.55;63.82;100723.75;5023437;28;19917;-61
2023/04/15 00:16:36;;;;;;;;;;;;;;;8.53;63.93;100736.31;5023780;28;21558;-61
2023/04/15 00:19:01;;;;;;;;;;;;;;;8.51;63.79;100725.91;5023794;28;20401;-61
2023/04/15 00:21:27;;;;;;;;;;;;;;;8.50;63.88;100729.53;5017731;28;20396;-61
2023/04/15 00:23:53;;;;;;;;;;;;;;;8.50;63.88;100726.06;5022776;28;19983;-61
2023/04/15 00:26:18;;;;;;;;;;;;;;;8.51;63.88;100719.78;5022137;28;20379;-61
2023/04/15 00:28:44;;;;;;;;;;;;;;;8.50;64.26;100720.75;5026397;28;19917;-61
2023/04/15 00:31:09;;;;;;;;;;;;;;;8.48;64.11;100728.03;5020571;28;19924;-61
2023/04/15 00:33:35;;;;;;;;;;;;;;;8.45;64.22;100729.19;5025474;28;19987;-61
2023/04/15 00:36:01;;;;;;;;;;;;;;;8.42;64.19;100726.03;5027657;28;19917;-61
2023/04/15 00:38:26;;;;;;;;;;;;;;;8.40;64.50;100730.66;5026424;28;19935;-61
2023/04/15 00:40:52;;;;;;;;;;;;;;;8.40;64.43;100731.50;5025025;28;20318;-61
2023/04/15 00:43:17;;;;;;;;;;;;;;;8.41;63.86;100732.31;5026498;28;20393;-61
2023/04/15 00:45:42;;;;;;;;;;;;;;;8.40;64.25;100733.31;5017857;28;20264;-61
2023/04/15 00:48:08;;;;;;;;;;;;;;;8.39;64.24;100735.13;5020289;28;19917;-61
2023/04/15 00:50:33;;;;;;;;;;;;;;;8.37;64.26;100737.91;5024046;28;19920;-61
2023/04/15 00:52:58;;;;;;;;;;;;;;;8.37;64.44;100729.97;5025243;28;20000;-61
2023/04/15 00:55:24;;;;;;;;;;;;;;;8.35;64.28;100737.22;5026584;28;19929;-61
2023/04/15 00:57:49;;;;;;;;;;;;;;;8.34;64.40;100740.88;5024581;28;19917;-61
2023/04/15 01:00:15;;;;;;;;;;;;;;;8.33;64.40;100739.19;5027342;28;19920;-61
2023/04/15 01:02:40;;;;;;;;;;;;;;;8.31;64.72;100738.50;5023252;28;19918;-61
2023/04/15 01:05:06;;;;;;;;;;;;;;;8.28;64.93;100735.34;5018575;28;20876;-62
2023/04/15 01:07:31;;;;;;;;;;;;;;;8.25;64.99;100740.97;5027057;28;20456;-61
2023/04/15 01:09:57;;;;;;;;;;;;;;;8.21;64.94;100732.50;5024716;28;19932;-61
2023/04/15 01:12:23;;;;;;;;;;;;;;;8.17;64.95;100733.81;5020356;28;19924;-61
2023/04/15 01:14:48;;;;;;;;;;;;;;;8.17;65.12;100731.19;5020539;28;19925;-61
2023/04/15 01:17:13;;;;;;;;;;;;;;;8.16;64.87;100724.22;5026372;28;19975;-61
2023/04/15 01:19:39;;;;;;;;;;;;;;;8.16;65.29;100729.53;5025144;28;20298;-61
2023/04/15 01:22:04;;;;;;;;;;;;;;;8.15;64.89;100724.38;5019932;28;20364;-61
2023/04/15 01:24:30;;;;;;;;;;;;;;;8.13;65.20;100734.28;5027582;28;19930;-61
2023/04/15 01:26:56;;;;;;;;;;;;;;;8.11;64.97;100729.16;5016763;28;19918;-61
2023/04/15 01:29:22;;;;;;;;;;;;;;;8.09;65.00;100736.41;5023751;28;19975;-61
2023/04/15 01:31:50;;;;;;;;;;;;;;;8.08;65.45;100738.22;5021502;28;19924;-61
2023/04/15 01:34:16;;;;;;;;;;;;;;;8.07;65.20;100728.63;5018480;28;20299;-61
2023/04/15 01:36:41;;;;;;;;;;;;;;;8.04;65.39;100728.13;5024320;28;20359;-61
2023/04/15 01:39:07;;;;;;;;;;;;;;;8.02;65.23;100735.38;5021426;28;19933;-61
2023/04/15 01:41:32;;;;;;;;;;;;;;;7.98;65.43;100732.22;5032973;28;20379;-61
2023/04/15 01:43:57;;;;;;;;;;;;;;;7.95;65.35;100734.34;5023160;28;19968;-61
2023/04/15 01:46:22;;;;;;;;;;;;;;;7.92;65.91;100729.38;5024992;28;20333;-61
2023/04/15 01:48:48;;;;;;;;;;;;;;;7.89;65.87;100735.81;5020727;28;19925;-61
2023/04/15 01:51:13;;;;;;;;;;;;;;;7.87;65.95;100737.78;5021958;28;19921;-61
2023/04/15 01:53:38;;;;;;;;;;;;;;;7.85;65.87;100742.41;5027696;28;19953;-60
2023/04/15 01:56:03;;;;;;;;;;;;;;;7.83;65.87;100736.44;5028798;28;20406;-61
2023/04/15 01:58:29;;;;;;;;;;;;;;;7.82;65.80;100742.72;5027909;28;19917;-61
2023/04/15 02:00:54;;;;;;;;;;;;;;;7.81;65.88;100743.69;5031229;28;19921;-61
2023/04/15 02:03:19;;;;;;;;;;;;;;;7.78;65.83;100751.91;5024718;28;19913;-61
2023/04/15 02:05:44;;;;;;;;;;;;;;;7.75;66.22;100741.63;5024964;28;19917;-61
2023/04/15 02:08:09;;;;;;;;;;;;;;;7.74;66.05;100732.06;5027655;28;19939;-61
2023/04/15 02:10:35;;;;;;;;;;;;;;;7.71;66.30;100742.94;5026108;28;19917;-61
2023/04/15 02:13:00;;;;;;;;;;;;;;;7.67;66.66;100741.59;5022664;28;19943;-61
2023/04/15 02:15:25;;;;;;;;;;;;;;;7.60;66.70;100738.75;5020537;28;19922;-61
2023/04/15 02:17:51;;;;;;;;;;;;;;;7.57;66.93;100740.88;5028395;28;19924;-61
2023/04/15 02:20:17;;;;;;;;;;;;;;;7.51;67.38;100736.16;5027260;28;20481;-61
2023/04/15 02:22:42;;;;;;;;;;;;;;;7.47;67.62;100741.75;5027427;28;19924;-61
2023/04/15 02:25:08;;;;;;;;;;;;;;;7.42;67.86;100746.69;5021381;28;20276;-61
2023/04/15 02:27:34;;;;;;;;;;;;;;;7.40;68.50;100747.81;5029626;28;19917;-61
2023/04/15 02:30:00;;;;;;;;;;;;;;;7.35;68.74;100752.72;5026766;28;20461;-61
2023/04/15 02:32:25;;;;;;;;;;;;;;;7.31;69.22;100740.81;5027820;28;20004;-62
2023/04/15 02:34:50;;;;;;;;;;;;;;;7.28;69.19;100741.94;5029450;28;20031;-61
2023/04/15 02:37:16;;;;;;;;;;;;;;;7.24;69.57;100747.69;5028826;28;20007;-61
2023/04/15 02:39:41;;;;;;;;;;;;;;;7.20;69.63;100751.59;5029438;28;20016;-61
2023/04/15 02:42:06;;;;;;;;;;;;;;;7.17;69.47;100755.38;5019763;28;20453;-61
2023/04/15 02:44:32;;;;;;;;;;;;;;;7.13;69.64;100760.13;5024211;28;19920;-61
2023/04/15 02:46:58;;;;;;;;;;;;;;;7.04;69.88;100755.75;5027844;28;19917;-61
2023/04/15 02:49:23;;;;;;;;;;;;;;;7.03;70.09;100762.00;5023620;28;19925;-61
2023/04/15 02:51:50;;;;;;;;;;;;;;;6.99;70.44;100763.28;5027866;28;19925;-61
2023/04/15 02:54:16;;;;;;;;;;;;;;;6.95;70.50;100769.03;5023523;28;19924;-61
2023/04/15 02:56:41;;;;;;;;;;;;;;;6.92;70.91;100766.66;5026815;28;20030;-61
2023/04/15 02:59:06;;;;;;;;;;;;;;;6.90;71.04;100772.06;5022071;28;19918;-61
2023/04/15 03:01:31;;;;;;;;;;;;;;;6.88;71.15;100776.69;5028477;28;19936;-61
2023/04/15 03:03:56;;;;;;;;;;;;;;;6.87;71.38;100768.91;5023804;28;19921;-61
2023/04/15 03:06:23;;;;;;;;;;;;;;;6.84;71.49;100770.03;5027631;28;19996;-61
2023/04/15 03:08:49;;;;;;;;;;;;;;;6.82;71.45;100766.72;5021656;28;19917;-61
2023/04/15 03:11:15;;;;;;;;;;;;;;;6.80;71.80;100760.75;5028118;28;19928;-61
2023/04/15 03:13:42;;;;;;;;;;;;;;;6.80;71.56;100771.31;5027987;28;20276;-61
2023/04/15 03:16:07;;;;;;;;;;;;;;;6.79;71.69;100770.50;5026925;28;19917;-61
2023/04/15 03:18:32;;;;;;;;;;;;;;;6.80;71.72;100771.31;5026092;28;19917;-61
2023/04/15 03:20:57;;;;;;;;;;;;;;;6.77;71.87;100774.25;5025867;28;19924;-61
2023/04/15 03:23:22;;;;;;;;;;;;;;;6.76;71.99;100775.25;5022219;28;19995;-61
2023/04/15 03:25:47;;;;;;;;;;;;;;;6.75;72.03;100773.56;5027304;28;19924;-61
2023/04/15 03:28:13;;;;;;;;;;;;;;;6.73;72.09;100778.16;5026132;28;19952;-61
2023/04/15 03:30:38;;;;;;;;;;;;;;;6.72;72.12;100781.78;5028594;28;19920;-61
2023/04/15 03:33:03;;;;;;;;;;;;;;;6.70;72.47;100781.09;5025408;28;19921;-61
2023/04/15 03:35:28;;;;;;;;;;;;;;;6.68;72.50;100785.72;5025148;28;20379;-61
2023/04/15 03:37:53;;;;;;;;;;;;;;;6.64;72.79;100790.41;5018570;28;19928;-61
2023/04/15 03:40:19;;;;;;;;;;;;;;;6.62;72.78;100794.19;5017742;28;20478;-61
2023/04/15 03:42:45;;;;;;;;;;;;;;;6.60;72.67;100798.78;5021087;28;20371;-61
2023/04/15 03:45:10;;;;;;;;;;;;;;;6.56;72.76;100795.59;5026304;28;20003;-61
2023/04/15 03:47:35;;;;;;;;;;;;;;;6.52;73.14;100802.16;5027034;28;19913;-61
2023/04/15 03:50:00;;;;;;;;;;;;;;;6.45;73.10;100806.34;5020309;28;19924;-61
2023/04/15 03:52:26;;;;;;;;;;;;;;;6.40;73.37;100806.78;5027410;28;20298;-61
2023/04/15 03:54:51;;;;;;;;;;;;;;;6.37;73.39;100814.16;5025000;28;19928;-61
2023/04/15 03:57:16;;;;;;;;;;;;;;;6.35;73.63;100810.81;5026279;28;20349;-61
2023/04/15 03:59:41;;;;;;;;;;;;;;;6.32;73.94;100814.56;5024333;28;19963;-61
2023/04/15 04:02:06;;;;;;;;;;;;;;;6.31;74.10;100815.53;5021882;28;19921;-61
2023/04/15 04:04:31;;;;;;;;;;;;;;;6.27;74.49;100822.09;5022211;28;19926;-61
2023/04/15 04:06:57;;;;;;;;;;;;;;;6.26;74.52;100828.34;5020771;28;19928;-61
2023/04/15 04:09:22;;;;;;;;;;;;;;;6.25;74.63;100829.31;5025966;28;19921;-61
2023/04/15 04:11:47;;;;;;;;;;;;;;;6.26;74.70;100832.78;5020045;28;19918;-61
2023/04/15 04:14:12;;;;;;;;;;;;;;;6.24;74.35;100834.72;5024416;28;19956;-61
2023/04/15 04:16:37;;;;;;;;;;;;;;;6.21;74.25;100849.03;5025151;28;20438;-61
2023/04/15 04:19:02;;;;;;;;;;;;;;;6.18;74.61;100852.78;5026572;28;19917;-60
2023/04/15 04:21:28;;;;;;;;;;;;;;;6.16;74.50;100849.47;5018091;28;19918;-61
2023/04/15 04:23:53;;;;;;;;;;;;;;;6.15;74.79;100860.16;5025319;28;19924;-61
2023/04/15 04:26:18;;;;;;;;;;;;;;;6.12;74.79;100857.78;5025490;28;20314;-61
2023/04/15 04:28:43;;;;;;;;;;;;;;;6.08;74.76;100864.31;5024344;28;19917;-61
2023/04/15 04:31:09;;;;;;;;;;;;;;;6.03;74.92;100867.34;5018533;28;19952;-61
2023/04/15 04:33:34;;;;;;;;;;;;;;;6.01;74.74;100866.66;5024803;28;19956;-61
2023/04/15 04:35:59;;;;;;;;;;;;;;;5.99;75.13;100865.16;5018410;28;19924;-61
2023/04/15 04:38:24;;;;;;;;;;;;;;;5.96;75.13;100874.16;5025206;28;19921;-61
2023/04/15 04:40:50;;;;;;;;;;;;;;;5.93;75.26;100874.47;5017609;28;19925;-61
2023/04/15 04:43:15;;;;;;;;;;;;;;;5.90;75.33;100880.84;5022136;28;19917;-61
2023/04/15 04:45:40;;;;;;;;;;;;;;;5.88;75.16;100881.91;5025393;28;19917;-61
2023/04/15 04:48:07;;;;;;;;;;;;;;;5.87;75.62;100882.91;5028560;28;19917;-61
2023/04/15 04:50:33;;;;;;;;;;;;;;;5.87;75.69;100886.38;5019442;28;20437;-61
2023/04/15 04:52:58;;;;;;;;;;;;;;;5.86;76.09;100897.03;5023367;28;19924;-61
2023/04/15 04:55:23;;;;;;;;;;;;;;;5.84;76.28;100899.81;5025905;28;19921;-61
2023/04/15 04:57:48;;;;;;;;;;;;;;;5.83;76.41;100899.97;5019389;28;19917;-61
2023/04/15 05:00:13;;;;;;;;;;;;;;;5.82;76.72;100904.41;5018870;28;20306;-61
2023/04/15 05:02:40;;;;;;;;;;;;;;;5.79;76.96;100899.41;5021527;28;20412;-61
2023/04/15 05:05:05;;;;;;;;;;;;;;;5.78;76.96;100905.66;5016924;28;19918;-61
2023/04/15 05:07:31;;;;;;;;;;;;;;;5.78;77.49;100904.78;5023107;28;19921;-61
2023/04/15 05:09:56;;;;;;;;;;;;;;;5.79;77.52;100909.94;5020893;28;19928;-61
2023/04/15 05:12:21;;;;;;;;;;;;;;;5.78;77.79;100910.91;5023519;28;19952;-61
2023/04/15 05:14:46;;;;;;;;;;;;;;;5.81;77.87;100915.06;5018060;28;20295;-61
2023/04/15 05:17:11;;;;;;;;;;;;;;;5.82;78.31;100920.22;5025131;28;20551;-61
2023/04/15 05:19:37;;;;;;;;;;;;;;;5.85;78.26;100924.38;5025091;28;20007;-61
2023/04/15 05:22:02;;;;;;;;;;;;;;;5.91;78.40;100931.75;5018037;28;19924;-61
2023/04/15 05:24:27;;;;;;;;;;;;;;;5.97;78.62;100938.25;5021619;28;20329;-61
2023/04/15 05:26:52;;;;;;;;;;;;;;;6.02;78.66;100942.16;5025813;28;20375;-61
2023/04/15 05:29:17;;;;;;;;;;;;;;;6.07;79.13;100944.34;5026709;28;19975;-61
2023/04/15 05:31:43;;;;;;;;;;;;;;;6.12;79.14;100952.72;5027633;28;19913;-61
2023/04/15 05:34:09;;;;;;;;;;;;;;;6.15;79.13;100953.25;5025008;28;19960;-61
2023/04/15 05:36:34;;;;;;;;;;;;;;;6.18;78.91;100954.78;5022356;28;20629;-61
2023/04/15 05:38:59;;;;;;;;;;;;;;;6.18;79.18;100952.97;5025320;28;20425;-61
2023/04/15 05:41:24;;;;;;;;;;;;;;;6.19;79.07;100954.66;5025872;28;20402;-61
2023/04/15 05:43:50;;;;;;;;;;;;;;;6.20;79.24;100960.75;5029052;28;19971;-62
2023/04/15 05:46:15;;;;;;;;;;;;;;;6.21;79.45;100970.31;5022200;28;19970;-61
2023/04/15 05:48:40;;;;;;;;;;;;;;;6.21;79.31;100972.97;5027996;28;19924;-61
2023/04/15 05:51:05;;;;;;;;;;;;;;;6.22;79.22;100967.53;5028218;28;19923;-61
2023/04/15 05:53:30;;;;;;;;;;;;;;;6.24;79.67;100982.41;5023537;28;19947;-61
2023/04/15 05:55:56;;;;;;;;;;;;;;;6.24;79.57;100983.22;5024974;28;19967;-61
2023/04/15 05:58:21;;;;;;;;;;;;;;;6.25;79.57;100984.88;5028314;28;20581;-61
2023/04/15 06:00:46;;;;;;;;;;;;;;;6.27;79.82;100992.66;5024000;28;19921;-61
2023/04/15 06:03:11;;;;;;;;;;;;;;;6.29;79.99;100993.34;5022383;28;20630;-60
2023/04/15 06:05:37;;;;;;;;;;;;;;;6.31;80.31;100997.50;5020205;28;19921;-60
2023/04/15 06:08:02;;;;;;;;;;;;;;;6.36;80.55;100997.09;5025973;28;19917;-60
2023/04/15 06:10:27;;;;;;;;;;;;;;;6.42;80.71;101007.13;5028879;28;19925;-61
2023/04/15 06:12:52;;;;;;;;;;;;;;;6.48;80.99;101004.75;5019837;28;19932;-61
2023/04/15 06:15:18;;;;;;;;;;;;;;;6.56;80.74;101013.75;5027234;28;19925;-60
2023/04/15 06:17:43;;;;;;;;;;;;;;;6.67;81.52;101013.63;5025639;28;20403;-60
2023/04/15 06:20:09;;;;;;;;;;;;;;;6.76;81.83;101021.50;5021972;28;19917;-61
2023/04/15 06:22:35;;;;;;;;;;;;;;;6.90;82.10;101029.94;5026949;28;20387;-60
2023/04/15 06:25:00;;;;;;;;;;;;;;;7.03;82.07;101030.50;5023524;28;19913;-61
2023/04/15 06:27:26;;;;;;;;;;;;;;;7.17;82.01;101035.31;5027900;28;20004;-61
2023/04/15 06:29:51;;;;;;;;;;;;;;;7.30;82.16;101035.84;5026723;28;19924;-61
2023/04/15 06:32:16;;;;;;;;;;;;;;;7.42;81.89;101042.59;5019820;28;20003;-61
2023/04/15 06:34:41;;;;;;;;;;;;;;;7.56;81.95;101040.47;5017557;28;19925;-61
2023/04/15 06:37:06;;;;;;;;;;;;;;;7.68;81.69;101049.84;5024925;28;20000;-61
2023/04/15 06:39:32;;;;;;;;;;;;;;;7.81;81.33;101054.81;5022719;28;19917;-61
2023/04/15 06:41:57;;;;;;;;;;;;;;;7.94;81.60;101056.13;5026752;28;19972;-61
2023/04/15 06:44:22;;;;;;;;;;;;;;;8.10;81.21;101060.78;5028370;28;20002;-61
2023/04/15 06:46:47;;;;;;;;;;;;;;;8.23;81.04;101065.69;5028032;28;20551;-61
2023/04/15 06:49:12;;;;;;;;;;;;;;;8.37;80.98;101062.53;5031193;28;19960;-61
2023/04/15 06:51:37;;;;;;;;;;;;;;;8.48;80.31;101072.91;5029808;28;19913;-61
2023/04/15 06:54:04;;;;;;;;;;;;;;;8.58;80.27;101078.13;5026915;28;20322;-61
2023/04/15 06:56:30;;;;;;;;;;;;;;;8.67;79.66;101086.00;5023932;28;20375;-61
2023/04/15 06:58:56;;;;;;;;;;;;;;;8.76;79.61;101086.91;5031224;28;20014;-60
2023/04/15 07:01:21;;;;;;;;;;;;;;;8.84;79.26;101086.97;5029477;28;19964;-61
2023/04/15 07:03:46;;;;;;;;;;;;;;;8.92;79.17;101094.97;5022773;28;19971;-61
2023/04/15 07:06:12;;;;;;;;;;;;;;;8.97;78.70;101095.34;5019662;28;19940;-61
2023/04/15 07:08:37;;;;;;;;;;;;;;;9.05;78.83;101099.03;5022710;28;19916;-61
2023/04/15 07:11:02;;;;;;;;;;;;;;;9.16;78.43;101106.75;5021154;28;19971;-61
2023/04/15 07:13:30;;;;;;;;;;;;;;;9.25;78.34;101113.75;5025057;28;19912;-61
2023/04/15 07:15:55;;;;;;;;;;;;;;;9.32;78.46;101118.28;5023211;28;20418;-61
2023/04/15 07:18:20;;;;;;;;;;;;;;;9.38;77.76;101114.19;5024005;28;19924;-61
2023/04/15 07:20:45;;;;;;;;;;;;;;;9.45;77.99;101119.69;5025692;28;20275;-61
2023/04/15 07:23:11;;;;;;;;;;;;;;;9.51;77.86;101121.69;5023503;28;19956;-61
2023/04/15 07:25:36;;;;;;;;;;;;;;;9.59;77.56;101119.94;5028922;28;19913;-61
2023/04/15 07:28:01;;;;;;;;;;;;;;;9.70;77.25;101125.97;5025641;28;19956;-61
2023/04/15 07:30:26;;;;;;;;;;;;;;;9.77;77.09;101132.28;5028289;28;19913;-61
2023/04/15 07:32:51;;;;;;;;;;;;;;;9.83;76.65;101126.34;5024971;28;19967;-61
2023/04/15 07:35:17;;;;;;;;;;;;;;;9.94;76.81;101142.00;5028821;28;19917;-61
2023/04/15 07:37:42;;;;;;;;;;;;;;;10.06;76.16;101140.72;5024358;28;19996;-61
2023/04/15 07:40:07;;;;;;;;;;;;;;;10.17;75.81;101144.91;5025607;28;19924;-61
2023/04/15 07:42:33;;;;;;;;;;;;;;;10.29;75.40;101150.78;5017025;28;20001;-61
2023/04/15 07:44:58;;;;;;;;;;;;;;;10.41;75.26;101155.66;5021302;28;20317;-61
2023/04/15 07:47:23;;;;;;;;;;;;;;;10.49;74.66;101155.66;5028130;28;20379;-61
2023/04/15 07:49:50;;;;;;;;;;;;;;;10.57;74.42;101157.50;5022430;28;19924;-61
2023/04/15 07:52:15;;;;;;;;;;;;;;;10.60;73.51;101151.03;5021467;28;19925;-61
2023/04/15 07:54:40;;;;;;;;;;;;;;;10.62;73.63;101160.50;5027898;28;20301;-61
2023/04/15 07:57:06;;;;;;;;;;;;;;;10.68;73.49;101166.97;5022126;28;20390;-61
2023/04/15 07:59:32;;;;;;;;;;;;;;;10.75;73.65;101163.53;5022456;28;19925;-61
2023/04/15 08:01:58;;;;;;;;;;;;;;;10.80;73.03;101169.19;5026262;28;20393;-61
2023/04/15 08:04:23;;;;;;;;;;;;;;;10.84;72.60;101170.50;5022504;28;19917;-61
2023/04/15 08:06:49;;;;;;;;;;;;;;;10.86;72.44;101179.16;5021081;28;19917;-61
2023/04/15 08:09:14;;;;;;;;;;;;;;;10.89;72.09;101167.34;5023687;28;20014;-61
2023/04/15 08:11:39;;;;;;;;;;;;;;;10.92;70.97;101171.50;5024701;28;20482;-61
2023/04/15 08:14:05;;;;;;;;;;;;;;;10.95;70.32;101187.13;5024463;28;20426;-61
2023/04/15 08:16:31;;;;;;;;;;;;;;;10.99;69.85;101181.34;5023446;28;19928;-61
2023/04/15 08:18:56;;;;;;;;;;;;;;;11.06;69.85;101186.81;5024328;28;20299;-61
2023/04/15 08:21:22;;;;;;;;;;;;;;;11.13;70.51;101187.81;5014130;28;19924;-61
2023/04/15 08:23:49;;;;;;;;;;;;;;;11.20;69.38;101196.78;5025378;28;20378;-61
2023/04/15 08:26:14;;;;;;;;;;;;;;;11.24;68.63;101197.28;5019211;28;20523;-60
2023/04/15 08:28:40;;;;;;;;;;;;;;;11.28;68.22;101204.78;5024186;28;19913;-61
2023/04/15 08:31:06;;;;;;;;;;;;;;;11.36;68.59;101204.75;5027853;28;19950;-60
2023/04/15 08:33:31;;;;;;;;;;;;;;;11.48;68.95;101211.38;5028370;28;20011;-61
2023/04/15 08:35:56;;;;;;;;;;;;;;;11.57;67.91;101206.91;5024993;28;19920;-61
2023/04/15 08:38:22;;;;;;;;;;;;;;;11.64;67.56;101215.06;5028495;28;20012;-61
2023/04/15 08:40:47;;;;;;;;;;;;;;;11.74;67.50;101219.19;5026345;28;19924;-61
2023/04/15 08:43:17;;;;;;;;;;;;;;;11.84;66.78;101229.66;5026894;28;20515;-60
2023/04/15 08:45:42;;;;;;;;;;;;;;;11.92;66.30;101235.00;5026705;28;20379;-61
2023/04/15 08:48:09;;;;;;;;;;;;;;;11.97;65.25;101242.47;5028096;28;19924;-60
2023/04/15 08:50:34;;;;;;;;;;;;;;;11.98;64.83;101244.94;5018137;28;20306;-61
2023/04/15 08:53:00;;;;;;;;;;;;;;;12.02;64.63;101243.59;5023073;28;19921;-61
2023/04/15 08:55:28;;;;;;;;;;;;;;;12.08;64.48;101250.91;5019512;28;20007;-61
2023/04/15 08:57:54;;;;;;;;;;;;;;;12.18;64.44;101263.22;5024086;28;19913;-61
2023/04/15 09:00:21;;;;;;;;;;;;;;;12.25;64.43;101258.88;5024378;28;20387;-61
2023/04/15 09:02:46;;;;;;;;;;;;;;;12.32;63.76;101267.81;5029909;28;20367;-61
2023/04/15 09:05:11;;;;;;;;;;;;;;;12.37;63.40;101271.63;5020005;28;19948;-61
2023/04/15 09:07:36;;;;;;;;;;;;;;;12.40;63.11;101283.78;5032102;28;19917;-61
2023/04/15 09:10:02;;;;;;;;;;;;;;;12.43;62.52;101286.09;5025455;28;19992;-61
2023/04/15 09:12:27;;;;;;;;;;;;;;;12.47;62.46;101284.78;5032033;28;20004;-61
2023/04/15 09:14:53;;;;;;;;;;;;;;;12.54;62.34;101288.41;5025553;28;19948;-60
2023/04/15 09:17:19;;;;;;;;;;;;;;;12.61;62.31;101291.19;5028734;28;20366;-61
2023/04/15 09:19:45;;;;;;;;;;;;;;;12.65;62.04;101305.81;5025329;28;19914;-61
2023/04/15 09:22:10;;;;;;;;;;;;;;;12.69;61.62;101301.81;5030469;28;19936;-60
2023/04/15 09:24:37;;;;;;;;;;;;;;;12.73;60.82;101307.66;5024917;28;20004;-60
2023/04/15 09:27:02;;;;;;;;;;;;;;;12.77;61.12;101303.63;5025341;28;19920;-61
2023/04/15 09:29:27;;;;;;;;;;;;;;;12.87;61.58;101305.06;5026035;28;19925;-61
2023/04/15 09:31:52;;;;;;;;;;;;;;;12.93;60.44;101312.38;5026030;28;19913;-61
2023/04/15 09:34:18;;;;;;;;;;;;;;;12.97;59.78;101315.50;5030198;28;19925;-61
2023/04/15 09:36:46;;;;;;;;;;;;;;;13.00;59.56;101325.81;5027409;28;20521;-61
2023/04/15 09:39:12;;;;;;;;;;;;;;;13.03;59.80;101330.84;5019308;28;19914;-61
2023/04/15 09:41:37;;;;;;;;;;;;;;;13.06;59.29;101330.47;5028261;28;20067;-61
2023/04/15 09:44:03;;;;;;;;;;;;;;;13.10;59.13;101331.78;5030398;28;19917;-61
2023/04/15 09:46:41;;;;;;;;;;;;;;;13.21;58.96;101326.06;5025167;28;19917;-61
2023/04/15 09:49:07;;;;;;;;;;;;;;;13.34;58.78;101338.84;5027898;28;19945;-61
2023/04/15 09:51:34;;;;;;;;;;;;;;;13.47;59.07;101333.75;5020789;28;21472;-61
2023/04/15 09:53:59;;;;;;;;;;;;;;;13.60;58.40;101335.84;5028127;28;19918;-61
2023/04/15 09:56:30;;;;;;;;;;;;;;;13.71;58.14;101335.41;5025903;28;19921;-61
2023/04/15 09:58:56;;;;;;;;;;;;;;;13.88;57.96;101342.31;5023624;28;20430;-61
2023/04/15 10:01:21;;;;;;;;;;;;;;;14.00;57.47;101342.69;5030360;28;20059;-61
2023/04/15 10:03:46;;;;;;;;;;;;;;;14.08;57.10;101337.25;5024300;28;20027;-61
2023/04/15 10:06:13;;;;;;;;;;;;;;;14.15;57.44;101338.19;5025671;28;19931;-61
2023/04/15 10:08:40;;;;;;;;;;;;;;;14.26;57.42;101342.28;5027185;28;20034;-61
2023/04/15 10:11:06;;;;;;;;;;;;;;;14.40;57.97;101345.97;5025317;28;19921;-61
2023/04/15 10:13:33;;;;;;;;;;;;;;;14.52;57.63;101345.38;5028918;28;19953;-61
2023/04/15 10:16:05;;;;;;;;;;;;;;;14.55;56.67;101358.38;5027068;28;19921;-61
2023/04/15 10:18:33;;;;;;;;;;;;;;;14.52;56.15;101356.06;5026693;28;20520;-61
2023/04/15 10:20:59;;;;;;;;;;;;;;;14.51;56.31;101356.25;5025159;28;20383;-61
2023/04/15 10:23:24;;;;;;;;;;;;;;;14.52;55.37;101361.41;5025443;28;19917;-61
2023/04/15 10:25:51;;;;;;;;;;;;;;;14.55;55.65;101365.56;5024379;28;19923;-60
2023/04/15 10:28:16;;;;;;;;;;;;;;;14.57;55.08;101363.53;5025970;28;19976;-60
2023/04/15 10:30:42;;;;;;;;;;;;;;;14.59;55.00;101361.50;5029554;28;19925;-60
2023/04/15 10:33:08;;;;;;;;;;;;;;;14.63;54.23;101365.47;5024541;28;19921;-60
2023/04/15 10:35:33;;;;;;;;;;;;;;;14.71;54.04;101360.00;5026444;28;19922;-61
2023/04/15 10:37:59;;;;;;;;;;;;;;;14.83;54.44;101373.75;5022474;28;20406;-60
2023/04/15 10:40:27;;;;;;;;;;;;;;;15.01;54.68;101376.88;5023668;28;19917;-60
2023/04/15 10:42:53;;;;;;;;;;;;;;;15.18;54.29;101367.63;5027143;28;20019;-61
2023/04/15 10:45:18;;;;;;;;;;;;;;;15.28;52.82;101375.34;5025804;28;20019;-61
2023/04/15 10:47:43;;;;;;;;;;;;;;;15.37;53.29;101370.72;5029462;28;19921;-60
2023/04/15 10:50:09;;;;;;;;;;;;;;;15.51;52.12;101372.50;5025885;28;19917;-60
2023/04/15 10:52:34;;;;;;;;;;;;;;;15.58;51.59;101367.22;5022637;28;19923;-61
2023/04/15 10:55:11;;;;;;;;;;;;;;;15.61;51.22;101373.09;5019941;28;20060;-61
2023/04/15 10:57:37;;;;;;;;;;;;;;;15.66;51.49;101385.91;5027197;28;19925;-61
2023/04/15 11:00:15;;;;;;;;;;;;;;;15.70;51.64;101388.00;5016391;28;19939;-61
2023/04/15 11:02:46;;;;;;;;;;;;;;;15.76;51.91;101387.22;5022402;28;20353;-60
2023/04/15 11:05:12;;;;;;;;;;;;;;;15.78;51.35;101384.34;5021720;28;19924;-61
2023/04/15 11:07:45;;;;;;;;;;;;;;;15.78;51.42;101389.72;5026353;28;19952;-61
2023/04/15 11:10:16;;;;;;;;;;;;;;;15.78;51.33;101397.75;5022605;28;19921;-60
2023/04/15 11:12:42;;;;;;;;;;;;;;;15.79;51.36;101392.19;5024039;28;20077;-60
2023/04/15 11:15:26;;;;;;;;;;;;;;;15.79;50.31;101396.72;5024672;28;20420;-61
2023/04/15 11:17:51;;;;;;;;;;;;;;;15.74;50.51;101386.59;5024783;28;20445;-61
2023/04/15 11:20:17;;;;;;;;;;;;;;;15.74;50.66;101391.94;5022422;28;20004;-61
2023/04/15 11:22:49;;;;;;;;;;;;;;;15.77;50.99;101396.09;5022757;28;19925;-61
2023/04/15 11:25:23;;;;;;;;;;;;;;;15.90;52.04;101392.69;5021783;28;20512;-61
2023/04/15 11:27:49;;;;;;;;;;;;;;;16.00;51.56;101391.38;5026841;28;20004;-61
2023/04/15 11:30:16;;;;;;;;;;;;;;;16.13;52.55;101398.69;5023684;28;20600;-63
2023/04/15 11:32:42;;;;;;;;;;;;;;;16.26;52.46;101389.94;5023623;28;19918;-61
2023/04/15 11:35:08;;;;;;;;;;;;;;;16.36;52.29;101388.56;5025489;28;19975;-61
2023/04/15 11:37:33;;;;;;;;;;;;;;;16.33;51.48;101394.31;5024667;28;19952;-61
2023/04/15 11:39:58;;;;;;;;;;;;;;;16.31;51.65;101407.09;5023907;28;19964;-61
2023/04/15 11:42:23;;;;;;;;;;;;;;;16.39;51.47;101404.25;5026392;28;19921;-61
2023/04/15 11:44:48;;;;;;;;;;;;;;;16.48;50.89;101410.31;5026786;28;19917;-61
2023/04/15 11:47:23;;;;;;;;;;;;;;;16.53;50.15;101418.59;5030320;28;20416;-61
2023/04/15 11:49:48;;;;;;;;;;;;;;;16.61;49.90;101410.41;5022762;28;19924;-61
2023/04/15 11:52:13;;;;;;;;;;;;;;;16.68;49.09;101418.50;5017294;28;19913;-61
2023/04/15 11:54:38;;;;;;;;;;;;;;;16.72;49.43;101411.72;5021672;28;19924;-61
2023/04/15 11:57:04;;;;;;;;;;;;;;;16.71;49.45;101418.13;5023214;28;19925;-61
2023/04/15 11:59:40;;;;;;;;;;;;;;;16.65;48.93;101426.91;5025160;28;19928;-61
2023/04/15 12:02:12;;;;;;;;;;;;;;;16.52;48.31;101425.00;5025884;28;19924;-61
2023/04/15 12:04:37;;;;;;;;;;;;;;;16.40;48.26;101426.53;5021822;28;19928;-61
2023/04/15 12:07:06;;;;;;;;;;;;;;;16.32;48.63;101432.03;5027245;28;19913;-61
2023/04/15 12:09:36;;;;;;;;;;;;;;;16.29;48.69;101429.75;5026072;28;19925;-61
2023/04/15 12:12:01;;;;;;;;;;;;;;;16.29;49.52;101435.94;5026997;28;20454;-61
2023/04/15 12:14:28;;;;;;;;;;;;;;;16.36;50.01;101438.66;5022432;28;20056;-61
2023/04/15 12:16:54;;;;;;;;;;;;;;;16.47;49.75;101431.94;5021806;28;20003;-61
2023/04/15 12:19:24;;;;;;;;;;;;;;;16.56;49.62;101444.19;5017746;28;19963;-61
2023/04/15 12:21:50;;;;;;;;;;;;;;;16.67;49.61;101444.50;5028143;28;20013;-61
2023/04/15 12:24:18;;;;;;;;;;;;;;;16.73;49.41;101443.72;5025737;28;20514;-61
2023/04/15 12:26:47;;;;;;;;;;;;;;;16.77;49.32;101449.53;5024289;28;19924;-61
2023/04/15 12:29:13;;;;;;;;;;;;;;;16.79;48.81;101454.72;5022568;28;19924;-61
2023/04/15 12:31:50;;;;;;;;;;;;;;;16.89;48.91;101455.19;5017384;28;19919;-61
2023/04/15 12:34:15;;;;;;;;;;;;;;;16.91;48.47;101463.84;5024088;28;19921;-60
2023/04/15 12:36:41;;;;;;;;;;;;;;;16.94;48.04;101468.81;5023306;28;19925;-61